Time;durP1;ratioP1;P1;durP2;ratioP2;P2;SDS_P1;SDS_P2;PMS_P1;PMS_P2;Temp;Humidity;BMP_temperature;BMP_pressure;BME280_temperature;BME280_humidity;BME280_pressure;Samples;Min_cycle;Max_cycle;Signal;HPM_P1;HPM_P2
2021/12/15 00:00:40;;;;;;;117.70;51.40;;;;;;;6.34;64.50;101051.84;5071450;28;20572;-68
2021/12/15 00:03:09;;;;;;;113.75;50.63;;;;;;;6.35;64.67;101058.81;5069735;28;20507;-69
2021/12/15 00:05:36;;;;;;;97.65;48.10;;;;;;;6.34;64.51;101060.59;5064901;28;20048;-68
2021/12/15 00:08:07;;;;;;;121.95;51.92;;;;;;;6.34;64.55;101059.69;5065563;28;20119;-69
2021/12/15 00:10:35;;;;;;;116.90;51.35;;;;;;;6.34;64.66;101057.09;5066205;28;20152;-69
2021/12/15 00:13:03;;;;;;;110.88;50.13;;;;;;;6.35;64.60;101054.41;5046976;28;20044;-68
2021/12/15 00:15:30;;;;;;;122.60;50.70;;;;;;;6.36;64.58;101050.88;5065344;28;20124;-69
2021/12/15 00:17:58;;;;;;;119.72;49.80;;;;;;;6.38;64.62;101053.44;5066634;28;20051;-70
2021/12/15 00:20:28;;;;;;;121.55;51.50;;;;;;;6.40;64.85;101060.31;5065861;28;20240;-69
2021/12/15 00:22:55;;;;;;;116.18;48.33;;;;;;;6.42;64.64;101058.47;5066637;28;20047;-69
2021/12/15 00:25:26;;;;;;;127.80;53.53;;;;;;;6.44;64.78;101063.66;5066894;28;20444;-70
2021/12/15 00:27:53;;;;;;;140.82;52.70;;;;;;;6.46;64.80;101061.81;5065168;28;20121;-69
2021/12/15 00:30:21;;;;;;;142.93;57.13;;;;;;;6.46;65.06;101064.44;5064017;28;20056;-67
2021/12/15 00:32:50;;;;;;;147.38;53.15;;;;;;;6.51;65.25;101059.84;5066203;28;20070;-68
2021/12/15 00:35:17;;;;;;;168.50;61.05;;;;;;;6.54;65.56;101051.88;5065231;28;20043;-68
2021/12/15 00:37:46;;;;;;;147.55;55.08;;;;;;;6.57;65.57;101049.13;5065823;28;20059;-69
2021/12/15 00:40:16;;;;;;;158.23;59.33;;;;;;;6.60;65.97;101059.47;5065300;28;20051;-69
2021/12/15 00:42:44;;;;;;;158.23;56.33;;;;;;;6.61;66.23;101050.69;5065945;28;20055;-70
2021/12/15 00:45:12;;;;;;;153.00;61.45;;;;;;;6.63;66.51;101048.84;5066046;28;20049;-68
2021/12/15 00:47:40;;;;;;;207.65;79.35;;;;;;;6.58;67.15;101066.56;5064348;28;20049;-67
2021/12/15 00:50:10;;;;;;;156.10;58.28;;;;;;;6.64;67.24;101063.66;5064247;28;20143;-70
2021/12/15 00:52:48;;;;;;;168.82;57.55;;;;;;;6.68;67.08;101061.75;5064640;28;20143;-68
2021/12/15 00:55:20;;;;;;;178.82;65.40;;;;;;;6.70;67.37;101055.53;5064769;28;20121;-69
2021/12/15 00:57:47;;;;;;;154.38;57.45;;;;;;;6.78;67.20;101059.59;5064150;28;20699;-66
2021/12/15 01:00:19;;;;;;;154.32;61.80;;;;;;;6.78;67.21;101063.06;5063347;28;20408;-67
2021/12/15 01:02:46;;;;;;;147.93;56.83;;;;;;;6.76;67.46;101069.31;5065115;28;20040;-68
2021/12/15 01:05:18;;;;;;;172.13;62.50;;;;;;;6.77;67.61;101065.75;5065364;28;20060;-69
2021/12/15 01:07:46;;;;;;;152.90;57.05;;;;;;;6.78;67.85;101077.97;5064501;28;20044;-68
2021/12/15 01:10:18;;;;;;;144.95;57.88;;;;;;;6.79;67.70;101079.66;5063438;28;20180;-70
2021/12/15 01:14:28;;;;;;;148.45;53.13;;;;;;;6.83;67.55;101081.25;5065475;28;20132;-67
2021/12/15 01:21:08;;;;;;;164.43;71.20;;;;;;;6.75;67.81;101099.09;5067884;28;20099;-67
2021/12/15 01:23:35;;;;;;;175.32;67.28;;;;;;;6.66;68.42;101095.97;5046556;28;20048;-68
2021/12/15 01:26:07;;;;;;;178.30;65.68;;;;;;;6.74;68.20;101090.38;5064589;28;20045;-69
2021/12/15 01:28:37;;;;;;;142.68;52.35;;;;;;;6.76;68.27;101095.56;5065222;28;20054;-67
2021/12/15 01:31:07;;;;;;;174.63;63.42;;;;;;;6.73;68.13;101087.81;5062758;28;20080;-69
2021/12/15 01:33:35;;;;;;;199.02;74.50;;;;;;;6.73;68.17;101095.69;5064959;28;20050;-70
2021/12/15 01:36:04;;;;;;;186.13;65.82;;;;;;;6.70;68.35;101084.41;5064964;28;20062;-70
2021/12/15 01:38:34;;;;;;;176.18;63.60;;;;;;;6.70;68.56;101081.78;5064770;28;20095;-68
2021/12/15 01:41:01;;;;;;;188.20;62.28;;;;;;;6.70;68.40;101087.03;5065807;28;20109;-68
2021/12/15 01:43:38;;;;;;;179.77;62.40;;;;;;;6.70;68.26;101089.66;5066271;28;20049;-70
2021/12/15 01:48:59;;;;;;;208.40;76.22;;;;;;;6.74;68.28;101102.66;5065294;28;20051;-68
2021/12/15 01:51:26;;;;;;;199.03;71.50;;;;;;;6.70;68.23;101102.78;5064407;28;20465;-68
2021/12/15 01:53:53;;;;;;;211.25;68.85;;;;;;;6.68;68.30;101094.13;5064929;28;20328;-69
2021/12/15 01:56:20;;;;;;;219.02;74.15;;;;;;;6.61;68.67;101091.81;5064785;28;20048;-68
2021/12/15 01:58:48;;;;;;;214.82;77.68;;;;;;;6.64;68.56;101092.53;5064036;28;20541;-69
2021/12/15 02:01:16;;;;;;;270.80;81.45;;;;;;;6.67;68.48;101096.81;5062119;28;20048;-68
2021/12/15 02:03:44;;;;;;;229.63;75.63;;;;;;;6.68;68.13;101099.38;5065169;28;20055;-70
2021/12/15 02:06:12;;;;;;;227.35;75.88;;;;;;;6.66;68.28;101101.22;5064261;28;20056;-68
2021/12/15 02:08:41;;;;;;;314.77;93.38;;;;;;;6.66;68.39;101106.47;5064419;28;20497;-70
2021/12/15 02:11:09;;;;;;;254.25;81.85;;;;;;;6.66;68.30;101101.22;5065314;28;20064;-70
2021/12/15 02:13:36;;;;;;;287.35;82.68;;;;;;;6.63;68.47;101105.75;5064488;28;20180;-67
2021/12/15 02:16:06;;;;;;;291.27;86.28;;;;;;;6.62;68.47;101109.28;5065448;28;20040;-68
2021/12/15 02:18:36;;;;;;;306.35;88.75;;;;;;;6.59;68.53;101105.03;5063158;28;20127;-67
2021/12/15 02:21:08;;;;;;;291.58;84.18;;;;;;;6.63;68.45;101106.59;5063040;28;20048;-69
2021/12/15 02:23:45;;;;;;;363.63;101.10;;;;;;;6.63;68.45;101106.59;5065064;28;20496;-69
2021/12/15 02:26:17;;;;;;;332.00;93.22;;;;;;;6.60;68.56;101111.09;5066091;28;20048;-68
2021/12/15 02:28:46;;;;;;;354.27;102.50;;;;;;;6.56;68.67;101118.25;5067462;28;20051;-70
2021/12/15 02:31:21;;;;;;;367.63;107.28;;;;;;;6.56;68.44;101120.88;5065501;28;20689;-69
2021/12/15 02:34:01;;;;;;;353.77;97.75;;;;;;;6.54;68.70;101121.88;5068778;28;20052;-69
2021/12/15 02:39:15;;;;;;;;;;;;;;;6.85;67.70;101117.00;5068167;28;20047;-69
2021/12/15 02:41:45;;;;;;;355.50;98.05;;;;;;;6.59;68.39;101115.50;5067667;28;20005;-68
2021/12/15 02:44:17;;;;;;;352.95;97.65;;;;;;;6.59;68.45;101122.50;5067123;28;20100;-69
2021/12/15 02:46:44;;;;;;;356.67;100.00;;;;;;;6.61;68.56;101121.56;5067729;28;20047;-65
2021/12/15 02:49:13;;;;;;;372.60;95.05;;;;;;;6.67;68.49;101116.03;5065912;28;20055;-69
2021/12/15 02:51:44;;;;;;;316.40;77.13;;;;;;;6.74;68.18;101123.66;5067060;28;20547;-68
2021/12/15 02:54:13;;;;;;;329.65;87.93;;;;;;;6.75;68.11;101117.47;5067655;28;20080;-68
2021/12/15 02:56:40;;;;;;;340.75;86.85;;;;;;;6.72;68.25;101121.09;5066467;28;20127;-68
2021/12/15 02:59:09;;;;;;;361.40;91.18;;;;;;;6.70;67.95;101123.78;5065825;28;20049;-69
2021/12/15 03:01:54;;;;;;;412.58;110.10;;;;;;;6.68;68.42;101120.38;5066823;28;20652;-68
2021/12/15 03:04:30;;;;;;;326.98;92.18;;;;;;;6.69;68.20;101129.94;5066835;28;20082;-68
2021/12/15 03:07:06;;;;;;;370.15;102.28;;;;;;;6.68;68.24;101133.50;5068066;28;20135;-66
2021/12/15 03:15:34;;;;;;;373.50;96.63;;;;;;;6.57;68.51;101129.59;5067850;28;20056;-68
2021/12/15 03:18:06;;;;;;;350.45;88.18;;;;;;;6.64;68.53;101136.31;5066952;28;20120;-69
2021/12/15 03:20:39;;;;;;;336.85;90.32;;;;;;;6.68;68.30;101130.88;5067172;28;20135;-68
2021/12/15 03:23:11;;;;;;;339.73;86.97;;;;;;;6.66;68.05;101129.22;5067337;28;20055;-68
2021/12/15 03:25:38;;;;;;;269.50;79.43;;;;;;;6.64;68.36;101129.28;5066683;28;20045;-69
2021/12/15 03:33:43;;;;;;;283.55;81.40;;;;;;;6.65;68.29;101140.66;5067151;28;20048;-67
2021/12/15 03:36:13;;;;;;;;;;;;;;;6.82;67.91;101150.44;5067097;28;20055;-71
2021/12/15 03:38:43;;;;;;;263.80;76.85;;;;;;;6.61;68.28;101142.56;5065717;28;19928;-70
2021/12/15 03:41:11;;;;;;;249.05;78.05;;;;;;;6.54;68.77;101137.63;5066941;28;20052;-67
2021/12/15 03:43:39;;;;;;;223.00;67.45;;;;;;;6.59;68.64;101139.13;5066649;28;20387;-66
2021/12/15 03:46:09;;;;;;;252.52;71.85;;;;;;;6.64;68.37;101139.78;5065784;28;20051;-69
2021/12/15 03:48:39;;;;;;;251.85;70.88;;;;;;;6.72;68.29;101141.22;5066428;28;20577;-69
2021/12/15 03:51:06;;;;;;;236.73;68.60;;;;;;;6.73;68.49;101143.78;5066242;28;20055;-68
2021/12/15 03:53:34;;;;;;;202.10;59.85;;;;;;;6.79;68.22;101143.53;5065507;28;20093;-67
2021/12/15 03:56:03;;;;;;;255.82;67.88;;;;;;;6.78;68.06;101141.81;5066501;28;20405;-68
2021/12/15 03:58:30;;;;;;;211.52;66.50;;;;;;;6.76;68.09;101134.94;5066369;28;20045;-70
2021/12/15 04:01:00;;;;;;;222.80;65.97;;;;;;;6.77;68.10;101140.13;5063836;28;20048;-68
2021/12/15 04:03:30;;;;;;;249.98;70.40;;;;;;;6.79;68.10;101135.66;5065962;28;20143;-68
2021/12/15 04:06:01;;;;;;;229.05;65.28;;;;;;;6.78;68.12;101139.19;5065984;28;20049;-68
2021/12/15 04:08:29;;;;;;;268.73;72.03;;;;;;;6.78;68.00;101135.72;5065885;28;20045;-66
2021/12/15 04:10:57;;;;;;;287.38;75.95;;;;;;;6.74;68.09;101131.53;5066338;28;20106;-67
2021/12/15 04:13:27;;;;;;;232.80;67.22;;;;;;;6.72;68.34;101133.34;5065815;28;20063;-66
2021/12/15 04:15:57;;;;;;;260.58;71.43;;;;;;;6.68;68.42;101130.88;5065501;28;20123;-69
2021/12/15 04:18:25;;;;;;;298.15;81.85;;;;;;;6.71;68.35;101129.88;5066466;28;20403;-69
2021/12/15 04:20:54;;;;;;;267.02;72.88;;;;;;;6.74;68.25;101131.53;5048177;28;20045;-68
2021/12/15 04:23:21;;;;;;;260.02;70.28;;;;;;;6.78;68.12;101138.34;5065844;28;20765;-68
2021/12/15 04:25:50;;;;;;;221.85;64.22;;;;;;;6.79;68.11;101138.31;5066347;28;20055;-67
2021/12/15 04:28:19;;;;;;;304.60;75.07;;;;;;;6.83;68.04;101149.53;5064909;28;20463;-70
2021/12/15 04:30:52;;;;;;;246.70;74.10;;;;;;;6.80;68.10;101152.28;5064244;28;20044;-67
2021/12/15 04:33:25;;;;;;;274.23;70.95;;;;;;;6.77;68.15;101153.28;5066814;28;20267;-71
2021/12/15 04:35:54;;;;;;;228.02;60.63;;;;;;;6.80;68.14;101154.91;5066110;28;20059;-67
2021/12/15 04:38:22;;;;;;;263.52;71.50;;;;;;;6.82;68.19;101168.81;5066345;28;20127;-68
2021/12/15 04:40:50;;;;;;;259.50;69.63;;;;;;;6.81;68.13;101170.59;5065642;28;20045;-69
2021/12/15 04:43:17;;;;;;;307.20;86.70;;;;;;;6.83;68.01;101170.53;5065634;28;20063;-68
2021/12/15 04:45:44;;;;;;;326.25;78.05;;;;;;;6.84;68.10;101174.84;5065919;28;20123;-68
2021/12/15 04:48:14;;;;;;;316.73;75.55;;;;;;;6.86;67.96;101170.38;5065907;28;20049;-69
2021/12/15 04:50:41;;;;;;;267.63;67.45;;;;;;;6.89;67.98;101172.88;5064645;28;20048;-71
2021/12/15 04:53:09;;;;;;;286.92;70.18;;;;;;;6.89;68.01;101175.50;5064747;28;20135;-68
2021/12/15 04:55:38;;;;;;;284.08;69.95;;;;;;;6.89;67.97;101171.09;5065237;28;20128;-67
2021/12/15 04:58:08;;;;;;;288.10;73.53;;;;;;;6.94;67.93;101177.97;5064764;28;20040;-70
2021/12/15 05:00:39;;;;;;;301.13;75.00;;;;;;;6.96;67.80;101187.47;5063405;28;20404;-68
2021/12/15 05:03:06;;;;;;;274.77;65.50;;;;;;;6.97;67.72;101186.56;5064758;28;20114;-69
2021/12/15 05:05:35;;;;;;;336.58;81.20;;;;;;;6.98;67.73;101190.03;5063865;28;20058;-68
2021/12/15 05:08:03;;;;;;;326.35;72.28;;;;;;;6.98;67.65;101190.88;5064084;28;20127;-68
2021/12/15 05:10:31;;;;;;;361.70;80.60;;;;;;;6.95;67.68;101188.41;5028399;28;20407;-68
2021/12/15 05:12:58;;;;;;;321.52;74.60;;;;;;;6.96;67.77;101186.63;5064624;28;20132;-67
2021/12/15 05:15:26;;;;;;;289.67;75.05;;;;;;;6.99;67.73;101186.50;5064538;28;20087;-68
2021/12/15 05:17:53;;;;;;;317.42;73.47;;;;;;;6.98;67.73;101185.63;5064154;28;20048;-67
2021/12/15 05:20:22;;;;;;;323.38;73.60;;;;;;;7.00;67.73;101183.78;5064276;28;20078;-68
2021/12/15 05:22:51;;;;;;;398.15;82.20;;;;;;;6.97;67.69;101181.31;5063738;28;20052;-68
2021/12/15 05:25:18;;;;;;;340.35;82.00;;;;;;;7.00;67.66;101191.66;5065870;28;20131;-69
2021/12/15 05:27:46;;;;;;;379.30;84.53;;;;;;;7.01;67.55;101193.38;5068114;28;20423;-72
2021/12/15 05:30:18;;;;;;;328.95;71.13;;;;;;;7.12;67.47;101192.06;5064556;28;20047;-68
2021/12/15 05:32:46;;;;;;;356.52;81.38;;;;;;;7.19;67.37;101188.25;5064828;28;20208;-75
2021/12/15 05:35:21;;;;;;;295.90;65.38;;;;;;;7.18;67.15;101197.06;5065091;28;20231;-76
2021/12/15 05:37:55;;;;;;;340.70;76.33;;;;;;;7.22;67.20;101190.75;5064743;28;20048;-72
2021/12/15 05:40:24;;;;;;;294.52;73.13;;;;;;;7.18;67.05;101192.66;5065471;28;20547;-75
2021/12/15 05:42:51;;;;;;;378.05;81.55;;;;;;;7.10;67.31;101196.53;5064442;28;20558;-74
2021/12/15 05:45:18;;;;;;;370.42;81.72;;;;;;;7.05;67.46;101197.56;5066267;28;20055;-72
2021/12/15 05:47:49;;;;;;;341.60;86.07;;;;;;;7.01;67.59;101210.91;5067621;28;20052;-70
2021/12/15 05:50:16;;;;;;;376.60;86.90;;;;;;;6.96;67.60;101203.22;5064444;28;20442;-71
2021/12/15 05:52:43;;;;;;;368.30;90.40;;;;;;;6.92;67.58;101204.28;5064946;28;20055;-72
2021/12/15 05:55:14;;;;;;;391.73;92.20;;;;;;;6.93;67.66;101199.88;5046268;28;20109;-71
2021/12/15 05:57:41;;;;;;;367.05;85.10;;;;;;;6.94;67.73;101201.59;5065095;28;20037;-72
2021/12/15 06:00:12;;;;;;;362.80;83.65;;;;;;;6.96;67.69;101205.84;5062046;28;20484;-72
2021/12/15 06:02:40;;;;;;;381.67;81.93;;;;;;;7.01;67.62;101209.13;5067198;28;20124;-72
2021/12/15 06:05:08;;;;;;;363.80;84.35;;;;;;;7.10;67.33;101214.94;5067744;28;20653;-71
2021/12/15 06:07:36;;;;;;;405.33;87.03;;;;;;;7.18;67.10;101224.16;5068018;28;20051;-72
2021/12/15 06:10:03;;;;;;;317.98;75.47;;;;;;;7.23;67.03;101226.63;5067211;28;20045;-71
2021/12/15 06:12:32;;;;;;;318.10;74.00;;;;;;;7.30;66.92;101232.47;5068861;28;20079;-71
2021/12/15 06:14:59;;;;;;;321.98;85.35;;;;;;;7.31;66.59;101228.91;5068214;28;20110;-71
2021/12/15 06:17:26;;;;;;;311.25;82.95;;;;;;;7.28;66.42;101233.38;5067646;28;20100;-72
2021/12/15 06:19:55;;;;;;;307.67;81.18;;;;;;;7.22;66.70;101224.91;5069075;28;20543;-72
2021/12/15 06:22:26;;;;;;;232.00;78.22;;;;;;;7.19;66.64;101230.31;5069182;28;20055;-72
2021/12/15 06:24:54;;;;;;;282.40;84.05;;;;;;;7.20;66.44;101232.88;5067156;28;20059;-71
2021/12/15 06:27:21;;;;;;;274.35;69.88;;;;;;;7.17;66.35;101227.75;5068820;28;20590;-71
2021/12/15 06:29:52;;;;;;;228.90;61.00;;;;;;;7.16;66.52;101230.41;5066585;28;20128;-72
2021/12/15 06:32:20;;;;;;;236.40;61.80;;;;;;;7.17;66.31;101240.03;5074587;28;20045;-72
2021/12/15 06:34:47;;;;;;;208.68;60.38;;;;;;;7.14;66.31;101237.53;5072072;28;20136;-73
2021/12/15 06:37:16;;;;;;;245.45;59.28;;;;;;;7.05;66.24;101239.59;5070345;28;20423;-73
2021/12/15 06:39:43;;;;;;;189.27;50.13;;;;;;;6.97;66.34;101236.47;5070248;28;20565;-74
2021/12/15 06:42:10;;;;;;;194.60;52.80;;;;;;;6.93;66.45;101240.09;5074168;28;20655;-71
2021/12/15 06:44:38;;;;;;;211.57;56.75;;;;;;;6.96;66.47;101245.25;5073521;28;20223;-70
2021/12/15 06:47:51;;;;;;;199.15;54.58;;;;;;;6.97;66.46;101240.84;5075712;28;20045;-71
2021/12/15 06:58:26;;;;;;;388.73;81.95;;;;;;;6.86;66.08;101272.78;5073593;28;20047;-70
2021/12/15 07:00:55;;;;;;;260.60;70.95;;;;;;;6.81;66.27;101280.03;5071833;28;20051;-71
2021/12/15 07:03:27;;;;;;;258.77;72.60;;;;;;;6.82;66.31;101282.56;5073291;28;20257;-72
2021/12/15 07:05:56;;;;;;;274.40;76.72;;;;;;;6.83;66.28;101280.81;5075542;28;20040;-71
2021/12/15 07:08:24;;;;;;;320.45;82.85;;;;;;;6.85;66.14;101284.22;5076260;28;20036;-68
2021/12/15 07:10:53;;;;;;;317.48;84.28;;;;;;;6.88;66.06;101279.72;5080515;28;20094;-69
2021/12/15 07:13:25;;;;;;;357.02;90.35;;;;;;;6.91;65.92;101283.13;5078801;28;20147;-71
2021/12/15 07:15:59;;;;;;;346.30;91.20;;;;;;;6.89;66.13;101284.03;5078045;28;20049;-67
2021/12/15 07:18:38;;;;;;;346.95;103.03;;;;;;;6.91;66.12;101291.00;5070554;28;20045;-66
2021/12/15 07:21:09;;;;;;;456.15;122.38;;;;;;;6.87;66.04;101285.03;5071085;28;20116;-66
2021/12/15 07:23:37;;;;;;;466.17;118.65;;;;;;;6.85;65.66;101290.34;5072927;28;20044;-69
2021/12/15 07:26:05;;;;;;;438.27;117.75;;;;;;;6.84;66.07;101293.88;5071278;28;20127;-68
2021/12/15 07:28:32;;;;;;;369.00;93.07;;;;;;;6.83;66.06;101296.56;5073882;28;20127;-68
2021/12/15 07:30:59;;;;;;;326.77;85.70;;;;;;;6.83;66.19;101307.06;5067019;28;20183;-68
2021/12/15 07:33:28;;;;;;;260.80;78.32;;;;;;;6.82;66.17;101292.22;5066475;28;20178;-66
2021/12/15 07:35:57;;;;;;;310.60;85.80;;;;;;;6.81;66.26;101303.66;5059639;28;20055;-70
2021/12/15 07:38:24;;;;;;;300.00;82.00;;;;;;;6.82;66.08;101295.69;5065983;28;20307;-71
2021/12/15 07:40:51;;;;;;;273.63;79.15;;;;;;;6.86;66.13;101293.81;5065746;28;20108;-70
2021/12/15 07:43:26;;;;;;;335.88;92.55;;;;;;;6.88;66.24;101297.25;5064992;28;20227;-72
2021/12/15 07:45:58;;;;;;;375.27;97.97;;;;;;;6.95;65.96;101301.34;5067116;28;20472;-72
2021/12/15 07:48:29;;;;;;;338.45;86.60;;;;;;;6.93;65.95;101303.16;5062817;28;20036;-71
2021/12/15 07:51:00;;;;;;;264.98;75.60;;;;;;;6.99;66.00;101297.66;5061454;28;20036;-70
2021/12/15 07:53:27;;;;;;;347.00;92.38;;;;;;;7.01;65.83;101301.06;5060118;28;20105;-72
2021/12/15 07:55:55;;;;;;;346.58;98.15;;;;;;;7.02;65.84;101297.53;5061044;28;20044;-67
2021/12/15 07:58:25;;;;;;;372.63;102.20;;;;;;;7.04;65.85;101300.97;5057808;28;20042;-67
2021/12/15 08:00:53;;;;;;;415.42;104.10;;;;;;;7.01;65.97;101306.31;5059018;28;20040;-72
2021/12/15 08:03:21;;;;;;;328.50;89.97;;;;;;;7.02;65.93;101305.44;5061621;28;20052;-69
2021/12/15 08:05:51;;;;;;;359.02;107.00;;;;;;;7.13;65.87;101302.34;5061019;28;20076;-67
2021/12/15 08:08:19;;;;;;;339.48;102.40;;;;;;;7.16;65.74;101309.25;5060351;28;20047;-68
2021/12/15 08:10:47;;;;;;;259.40;81.75;;;;;;;7.17;65.77;101308.34;5060741;28;20147;-71
2021/12/15 08:13:15;;;;;;;256.60;77.35;;;;;;;7.17;65.89;101308.34;5060846;28;20128;-70
2021/12/15 08:15:42;;;;;;;310.50;85.93;;;;;;;7.18;65.87;101320.53;5061148;28;20075;-70
2021/12/15 08:18:09;;;;;;;293.13;95.43;;;;;;;7.22;65.77;101319.50;5059538;28;20041;-68
2021/12/15 08:20:41;;;;;;;310.52;103.03;;;;;;;7.26;65.82;101334.22;5059581;28;20040;-69
2021/12/15 08:23:10;;;;;;;296.60;101.40;;;;;;;7.24;65.94;101325.56;5059285;28;20044;-67
2021/12/15 08:25:38;;;;;;;232.57;70.75;;;;;;;7.24;65.90;101323.78;5060580;28;20056;-69
2021/12/15 08:28:06;;;;;;;263.60;77.80;;;;;;;7.23;66.05;101326.47;5061479;28;20045;-68
2021/12/15 08:30:35;;;;;;;304.85;88.25;;;;;;;7.30;66.08;101325.28;5056773;28;20678;-68
2021/12/15 08:33:10;;;;;;;287.55;91.18;;;;;;;7.34;65.89;101332.13;5059644;28;20082;-68
2021/12/15 08:35:45;;;;;;;298.45;97.85;;;;;;;7.40;65.98;101339.78;5059384;28;20044;-68
2021/12/15 08:38:17;;;;;;;324.47;98.87;;;;;;;7.47;65.87;101342.97;5055823;28;20051;-68
2021/12/15 08:40:45;;;;;;;276.52;91.97;;;;;;;7.54;65.82;101346.22;5059618;28;20407;-69
2021/12/15 08:43:14;;;;;;;304.02;102.93;;;;;;;7.59;65.71;101334.56;5060147;28;20037;-68
2021/12/15 08:45:44;;;;;;;285.38;97.05;;;;;;;7.64;65.74;101339.66;5059152;28;20055;-71
2021/12/15 08:48:12;;;;;;;236.98;84.07;;;;;;;7.70;65.71;101339.38;5059436;28;20078;-69
2021/12/15 08:50:41;;;;;;;273.42;89.72;;;;;;;7.76;65.79;101331.22;5060619;28;20036;-69
2021/12/15 08:53:10;;;;;;;285.90;84.50;;;;;;;7.77;65.55;101327.66;5059346;28;20401;-69
2021/12/15 08:55:40;;;;;;;290.20;98.25;;;;;;;7.83;65.71;101322.16;5061390;28;20051;-71
2021/12/15 08:58:10;;;;;;;308.50;100.57;;;;;;;7.91;65.63;101313.06;5059805;28;20044;-69
2021/12/15 09:00:38;;;;;;;321.98;104.32;;;;;;;8.01;65.43;101316.97;5058254;28;20127;-67
2021/12/15 09:03:05;;;;;;;330.73;106.05;;;;;;;8.09;65.50;101316.66;5040943;28;20056;-66
2021/12/15 09:05:32;;;;;;;310.73;93.95;;;;;;;8.13;65.38;101318.22;5040620;28;20045;-67
2021/12/15 09:08:01;;;;;;;269.27;83.03;;;;;;;8.18;65.51;101310.97;5040697;28;20045;-68
2021/12/15 09:10:32;;;;;;;272.90;83.55;;;;;;;8.27;65.50;101299.19;5041142;28;20071;-69
2021/12/15 09:13:01;;;;;;;218.57;73.05;;;;;;;8.32;65.26;101302.41;5040317;28;20049;-69
2021/12/15 09:15:28;;;;;;;221.43;74.47;;;;;;;8.37;65.11;101303.06;5040167;28;20045;-67
2021/12/15 09:17:56;;;;;;;195.93;69.40;;;;;;;8.35;65.18;101311.03;5041229;28;20533;-67
2021/12/15 09:20:27;;;;;;;199.77;66.63;;;;;;;8.35;65.28;101302.28;5041755;28;20052;-66
2021/12/15 09:22:54;;;;;;;199.25;58.80;;;;;;;8.32;65.42;101300.66;5042532;28;20048;-68
2021/12/15 09:25:22;;;;;;;168.52;57.05;;;;;;;8.36;65.60;101298.75;5040900;28;20061;-69
2021/12/15 09:27:49;;;;;;;187.05;64.57;;;;;;;8.33;65.51;101290.97;5057377;28;20556;-67
2021/12/15 09:30:20;;;;;;;178.07;61.70;;;;;;;8.29;65.73;101292.91;5056472;28;20420;-67
2021/12/15 09:32:49;;;;;;;240.48;78.68;;;;;;;8.29;65.76;101292.06;5059556;28;20067;-67
2021/12/15 09:35:18;;;;;;;222.40;71.93;;;;;;;8.30;65.71;101288.47;5055198;28;20433;-68
2021/12/15 09:37:45;;;;;;;200.48;71.13;;;;;;;8.34;65.81;101283.03;5059721;28;20048;-67
2021/12/15 09:40:13;;;;;;;182.77;67.65;;;;;;;8.31;65.77;101279.69;5060034;28;20048;-68
2021/12/15 09:42:43;;;;;;;189.88;62.95;;;;;;;8.26;65.95;101292.19;5057921;28;20079;-66
2021/12/15 09:45:25;;;;;;;184.68;66.60;;;;;;;8.23;65.85;101285.31;5061724;28;20044;-67
2021/12/15 09:57:06;;;;;;;179.20;65.35;;;;;;;8.21;66.03;101274.84;5041066;28;20115;-67
2021/12/15 10:02:22;;;;;;;161.23;53.38;;;;;;;8.39;65.75;101283.66;5056154;28;20630;-66
2021/12/15 10:05:01;;;;;;;143.80;53.38;;;;;;;8.38;65.68;101276.69;5037721;28;20131;-68
2021/12/15 10:10:44;;;;;;;166.63;50.35;;;;;;;8.37;65.67;101269.72;5056966;28;20055;-68
2021/12/15 10:18:51;;;;;;;180.32;61.00;;;;;;;8.38;65.66;101265.31;5054552;28;20385;-67
2021/12/15 10:21:26;;;;;;;188.27;67.43;;;;;;;8.37;65.83;101268.84;5053880;28;20041;-69
2021/12/15 10:23:54;;;;;;;178.05;62.42;;;;;;;8.42;65.90;101264.25;5058058;28;20059;-68
2021/12/15 10:26:22;;;;;;;211.00;66.68;;;;;;;8.40;65.88;101263.44;5058790;28;20048;-67
2021/12/15 10:28:52;;;;;;;194.20;63.95;;;;;;;8.37;65.86;101266.22;5057758;28;20124;-68
2021/12/15 10:31:21;;;;;;;230.70;75.18;;;;;;;8.38;66.14;101244.25;5054071;28;20049;-69
2021/12/15 10:33:52;;;;;;;198.88;72.15;;;;;;;8.41;65.98;101244.09;5022892;28;20049;-66
2021/12/15 10:36:22;;;;;;;186.20;66.95;;;;;;;8.41;65.91;101249.38;5058086;28;20052;-69
2021/12/15 10:38:53;;;;;;;202.25;66.82;;;;;;;8.47;66.14;101254.38;5057565;28;20041;-67
2021/12/15 10:41:23;;;;;;;200.05;64.13;;;;;;;8.54;66.08;101252.31;5057613;28;20044;-68
2021/12/15 10:43:55;;;;;;;163.77;60.75;;;;;;;8.60;66.02;101242.31;5057844;28;20051;-66
2021/12/15 10:46:25;;;;;;;155.48;56.35;;;;;;;8.60;66.01;101238.81;5056022;28;20056;-69
2021/12/15 10:48:58;;;;;;;166.18;56.33;;;;;;;8.66;65.86;101229.78;5059097;28;20036;-69
2021/12/15 10:51:34;;;;;;;158.52;55.58;;;;;;;8.59;66.03;101226.59;5061462;28;20062;-66
2021/12/15 10:54:08;;;;;;;149.50;53.17;;;;;;;8.59;66.06;101224.81;5058003;28;20049;-67
2021/12/15 10:56:38;;;;;;;150.43;55.25;;;;;;;8.54;66.12;101220.69;5060338;28;20687;-67
2021/12/15 10:59:12;;;;;;;145.20;57.00;;;;;;;8.48;66.23;101229.75;5055623;28;20051;-68
2021/12/15 11:01:47;;;;;;;158.38;60.40;;;;;;;8.41;66.26;101226.53;5058660;28;20044;-69
2021/12/15 11:04:38;;;;;;;137.35;48.42;;;;;;;8.40;66.48;101219.53;5062888;28;20049;-70
2021/12/15 11:07:31;;;;;;;148.77;53.38;;;;;;;8.41;66.36;101216.00;5064023;28;20052;-69
2021/12/15 11:10:02;;;;;;;145.55;52.10;;;;;;;8.39;66.26;101230.13;5063148;28;20044;-71
2021/12/15 11:12:33;;;;;;;150.05;55.90;;;;;;;8.31;66.32;101222.63;5062073;28;20126;-73
2021/12/15 11:15:03;;;;;;;141.98;57.28;;;;;;;8.26;66.37;101223.75;5060524;28;20048;-68
2021/12/15 11:17:33;;;;;;;155.50;58.67;;;;;;;8.20;66.49;101217.84;5062578;28;20041;-67
2021/12/15 11:20:05;;;;;;;174.73;68.63;;;;;;;8.15;66.70;101225.09;5060852;28;20083;-67
2021/12/15 11:22:44;;;;;;;177.13;70.68;;;;;;;8.16;66.71;101229.47;5061820;28;20048;-67
2021/12/15 11:25:21;;;;;;;265.70;103.72;;;;;;;8.23;66.70;101228.25;5062793;28;20052;-68
2021/12/15 11:27:52;;;;;;;289.92;121.20;;;;;;;8.26;66.50;101226.38;5060659;28;20051;-67
2021/12/15 11:30:26;;;;;;;351.42;133.68;;;;;;;8.22;66.45;101223.91;5060457;28;20228;-72
2021/12/15 11:32:55;;;;;;;248.32;96.80;;;;;;;8.24;66.48;101226.47;5063918;28;20045;-72
2021/12/15 11:35:28;;;;;;;216.88;89.38;;;;;;;8.29;66.28;101229.72;5043556;28;20056;-73
2021/12/15 11:37:59;;;;;;;213.27;88.13;;;;;;;8.33;66.47;101235.69;5063204;28;20145;-71
2021/12/15 11:40:32;;;;;;;242.25;101.90;;;;;;;8.41;66.36;101228.31;5062447;28;20055;-72
2021/12/15 11:43:00;;;;;;;245.48;98.63;;;;;;;8.48;66.21;101224.50;5062804;28;20044;-70
2021/12/15 11:45:27;;;;;;;219.88;93.97;;;;;;;8.55;66.32;101222.41;5062925;28;20160;-70
2021/12/15 11:48:11;;;;;;;162.88;70.65;;;;;;;8.63;66.37;101225.50;5063647;28;20041;-72
2021/12/15 11:50:40;;;;;;;150.57;61.83;;;;;;;8.68;66.03;101227.91;5068959;28;20041;-70
2021/12/15 11:53:14;;;;;;;157.50;63.58;;;;;;;8.73;66.32;101237.31;5062015;28;20044;-71
2021/12/15 11:55:43;;;;;;;164.60;70.72;;;;;;;8.78;66.06;101237.91;5060786;28;20048;-70
2021/12/15 11:58:10;;;;;;;145.43;67.22;;;;;;;8.74;66.23;101239.00;5061339;28;20072;-72
2021/12/15 12:00:37;;;;;;;167.25;70.05;;;;;;;8.75;66.29;101229.31;5060375;28;20061;-71
2021/12/15 12:03:04;;;;;;;144.90;57.30;;;;;;;8.77;66.12;101230.97;5062906;28;20064;-70
2021/12/15 12:05:34;;;;;;;198.55;75.65;;;;;;;8.78;66.27;101235.28;5060539;28;20408;-73
2021/12/15 12:08:05;;;;;;;140.00;60.60;;;;;;;8.76;66.48;101233.66;5060791;28;20094;-72
2021/12/15 12:10:35;;;;;;;132.32;61.28;;;;;;;8.73;66.38;101232.06;5061146;28;20102;-73
2021/12/15 12:13:11;;;;;;;136.75;57.78;;;;;;;8.77;66.53;101230.97;5065750;28;20087;-72